Time;durP1;ratioP1;P1;durP2;ratioP2;P2;SDS_P1;SDS_P2;PMS_P1;PMS_P2;Temp;Humidity;BMP_temperature;BMP_pressure;BME280_temperature;BME280_humidity;BME280_pressure;Samples;Min_cycle;Max_cycle;Signal;HPM_P1;HPM_P2
2022/09/08 00:00:21;;;;;;;1.98;0.70;;;26.30;46.60;;;;;;5022733;28;20029;-56
2022/09/08 00:02:47;;;;;;;1.30;0.75;;;26.30;46.60;;;;;;5018225;28;20079;-55
2022/09/08 00:05:17;;;;;;;1.15;0.70;;;26.30;46.60;;;;;;5024921;28;20029;-51
2022/09/08 00:07:44;;;;;;;2.30;0.70;;;26.30;46.70;;;;;;5022183;28;20030;-53
2022/09/08 00:10:11;;;;;;;2.38;0.85;;;26.30;46.70;;;;;;5027822;28;20052;-55
2022/09/08 00:12:41;;;;;;;1.80;0.80;;;26.30;46.70;;;;;;5022023;28;20045;-54
2022/09/08 00:15:08;;;;;;;1.33;0.70;;;26.30;46.80;;;;;;5023068;28;20457;-54
2022/09/08 00:17:34;;;;;;;1.10;0.70;;;26.30;46.80;;;;;;5023511;28;20029;-55
2022/09/08 00:20:00;;;;;;;1.95;0.73;;;26.30;46.90;;;;;;5018521;28;20040;-50
2022/09/08 00:22:26;;;;;;;2.72;0.70;;;26.30;46.90;;;;;;5023284;28;20134;-53
2022/09/08 00:24:52;;;;;;;1.48;0.85;;;26.30;47.00;;;;;;5026315;28;20057;-54
2022/09/08 00:27:18;;;;;;;1.55;0.80;;;26.30;47.00;;;;;;5021311;28;20448;-54
2022/09/08 00:29:44;;;;;;;3.75;0.77;;;26.20;47.10;;;;;;5027071;28;20048;-55
2022/09/08 00:32:10;;;;;;;2.33;0.88;;;26.20;47.10;;;;;;5023833;28;20439;-53
2022/09/08 00:34:36;;;;;;;2.35;0.98;;;26.20;47.20;;;;;;5023910;28;20037;-55
2022/09/08 00:37:02;;;;;;;2.63;0.98;;;26.20;47.20;;;;;;5026050;28;20045;-55
2022/09/08 00:39:28;;;;;;;2.55;1.00;;;26.20;47.30;;;;;;5030347;28;20040;-51
2022/09/08 00:41:55;;;;;;;2.67;1.02;;;26.20;47.40;;;;;;5024424;28;20022;-55
2022/09/08 00:44:37;;;;;;;2.10;1.00;;;26.20;47.40;;;;;;5025301;28;20034;-54
2022/09/08 00:47:06;;;;;;;1.85;0.85;;;26.20;47.40;;;;;;5026071;28;20033;-53
2022/09/08 00:49:32;;;;;;;1.75;0.90;;;26.20;47.50;;;;;;5025050;28;20056;-51
2022/09/08 00:51:59;;;;;;;2.25;0.90;;;26.20;47.60;;;;;;5024435;28;20026;-54
2022/09/08 00:54:25;;;;;;;1.65;0.77;;;26.20;47.70;;;;;;5018437;28;20028;-55
2022/09/08 00:56:54;;;;;;;2.17;0.80;;;26.20;47.80;;;;;;5030241;28;20023;-53
2022/09/08 00:59:22;;;;;;;1.60;0.85;;;26.20;47.80;;;;;;5030312;28;20030;-53
2022/09/08 01:01:48;;;;;;;1.30;0.70;;;26.20;47.90;;;;;;5023606;28;20513;-54
2022/09/08 01:04:14;;;;;;;1.95;0.95;;;26.20;48.00;;;;;;5024678;28;20108;-54
2022/09/08 01:12:52;;;;;;;1.02;0.60;;;26.20;48.10;;;;;;4995094;28;20049;-55
2022/09/08 01:15:21;;;;;;;1.90;0.80;;;26.20;48.20;;;;;;5025334;28;20427;-54
2022/09/08 01:17:48;;;;;;;2.67;0.73;;;26.20;48.20;;;;;;5030734;28;20026;-52
2022/09/08 01:20:17;;;;;;;1.02;0.63;;;26.20;48.30;;;;;;5028578;28;20059;-51
2022/09/08 01:23:14;;;;;;;1.15;0.80;;;26.20;48.40;;;;;;5027736;28;20034;-55
2022/09/08 01:26:06;;;;;;;1.52;0.60;;;26.20;48.50;;;;;;5032361;28;20033;-53
2022/09/08 01:28:44;;;;;;;1.88;0.70;;;26.20;48.70;;;;;;5016615;28;20461;-54
2022/09/08 01:31:12;;;;;;;2.10;0.90;;;26.10;48.80;;;;;;5029209;28;20052;-52
2022/09/08 01:33:39;;;;;;;1.35;0.80;;;26.10;48.90;;;;;;5025682;28;20022;-54
2022/09/08 01:36:10;;;;;;;1.38;0.60;;;26.10;49.00;;;;;;5027498;28;20331;-52
2022/09/08 01:38:37;;;;;;;2.28;0.80;;;26.10;49.10;;;;;;5027547;28;20048;-54
2022/09/08 01:41:03;;;;;;;1.65;0.77;;;26.10;49.10;;;;;;5029982;28;20036;-56
2022/09/08 01:43:29;;;;;;;1.05;0.68;;;26.10;49.10;;;;;;5028562;28;20064;-53
2022/09/08 01:45:58;;;;;;;2.30;0.95;;;26.10;49.20;;;;;;5025434;28;20657;-55
2022/09/08 01:48:24;;;;;;;2.13;0.70;;;26.10;49.30;;;;;;5025189;28;20456;-52
2022/09/08 01:50:51;;;;;;;1.58;0.70;;;26.10;49.40;;;;;;5029559;28;20349;-53
2022/09/08 01:53:18;;;;;;;2.20;0.98;;;26.10;49.50;;;;;;5028294;28;20037;-51
2022/09/08 01:55:44;;;;;;;2.65;0.90;;;26.10;49.60;;;;;;5026741;28;20025;-54
2022/09/08 01:58:10;;;;;;;1.85;0.90;;;26.10;49.70;;;;;;5025781;28;20033;-53
2022/09/08 02:00:41;;;;;;;1.42;0.70;;;26.10;49.70;;;;;;5023330;28;20033;-53
2022/09/08 02:03:10;;;;;;;1.63;0.70;;;26.10;49.90;;;;;;5027092;28;20028;-54
2022/09/08 02:05:43;;;;;;;2.03;0.88;;;26.10;49.90;;;;;;5021662;28;20029;-54
2022/09/08 02:08:10;;;;;;;2.17;0.70;;;26.10;49.90;;;;;;5025008;28;20036;-54
2022/09/08 02:10:37;;;;;;;1.63;0.63;;;26.10;50.00;;;;;;5024031;28;20037;-56
2022/09/08 02:13:04;;;;;;;2.40;0.68;;;26.10;50.00;;;;;;5023197;28;20423;-54
2022/09/08 02:15:30;;;;;;;1.73;0.70;;;26.10;50.10;;;;;;5026042;28;20025;-55
2022/09/08 02:17:59;;;;;;;2.42;0.70;;;26.10;50.20;;;;;;5016663;28;20030;-54
2022/09/08 02:20:26;;;;;;;2.15;0.60;;;26.10;50.30;;;;;;5029768;28;20030;-49
2022/09/08 02:22:53;;;;;;;2.80;0.70;;;26.10;50.30;;;;;;5027543;28;20022;-55
2022/09/08 02:25:20;;;;;;;2.58;1.05;;;26.10;50.30;;;;;;5028620;28;20029;-52
2022/09/08 02:27:46;;;;;;;1.50;0.70;;;26.10;50.30;;;;;;5026774;28;20034;-55
2022/09/08 02:30:12;;;;;;;2.53;0.88;;;26.10;50.40;;;;;;5026648;28;20037;-53
2022/09/08 02:32:38;;;;;;;1.83;0.80;;;26.10;50.40;;;;;;5021094;28;20034;-53
2022/09/08 02:35:04;;;;;;;1.73;0.70;;;26.00;50.40;;;;;;5025527;28;20036;-56
2022/09/08 02:37:30;;;;;;;2.55;0.82;;;26.00;50.40;;;;;;5027874;28;20052;-54
2022/09/08 02:39:56;;;;;;;3.35;1.00;;;26.00;50.40;;;;;;5027306;28;20433;-52
2022/09/08 02:42:23;;;;;;;3.22;0.70;;;26.00;51.00;;;;;;5027754;28;20397;-55
2022/09/08 02:44:49;;;;;;;2.55;0.88;;;26.00;50.40;;;;;;5024441;28;20025;-54
2022/09/08 02:47:15;;;;;;;2.42;0.63;;;26.00;50.40;;;;;;5027091;28;20076;-53
2022/09/08 02:49:40;;;;;;;1.30;0.60;;;26.00;50.40;;;;;;5026591;28;20073;-54
2022/09/08 02:52:07;;;;;;;1.85;0.60;;;26.00;50.40;;;;;;5025621;28;20075;-56
2022/09/08 02:54:33;;;;;;;2.90;0.80;;;26.00;50.40;;;;;;5023911;28;20030;-55
2022/09/08 02:56:59;;;;;;;1.30;0.60;;;26.00;50.40;;;;;;5026135;28;20033;-51
2022/09/08 02:59:24;;;;;;;2.25;0.80;;;26.00;50.50;;;;;;5027827;28;20091;-53
2022/09/08 03:01:50;;;;;;;1.73;0.70;;;26.00;50.50;;;;;;5029885;28;20079;-54
2022/09/08 03:04:16;;;;;;;2.60;0.90;;;26.00;50.50;;;;;;5023683;28;20076;-53
2022/09/08 03:06:43;;;;;;;1.77;0.70;;;26.00;50.50;;;;;;5023984;28;20041;-52
2022/09/08 03:09:09;;;;;;;3.08;1.10;;;26.00;50.50;;;;;;5021974;28;20029;-55
2022/09/08 03:11:35;;;;;;;1.73;0.73;;;26.00;50.60;;;;;;5027420;28;20080;-52
2022/09/08 03:14:01;;;;;;;2.40;0.90;;;26.00;50.60;;;;;;5026697;28;20017;-56
2022/09/08 03:16:27;;;;;;;2.10;0.80;;;26.00;50.60;;;;;;5028162;28;20038;-55
2022/09/08 03:18:54;;;;;;;3.30;0.90;;;26.00;50.60;;;;;;5025993;28;20348;-53
2022/09/08 03:21:20;;;;;;;1.98;0.70;;;26.00;50.60;;;;;;5026823;28;20445;-55
2022/09/08 03:23:47;;;;;;;2.85;0.80;;;26.00;50.60;;;;;;5019752;28;20022;-56
2022/09/08 03:26:15;;;;;;;1.60;0.65;;;26.00;50.60;;;;;;5030740;28;20052;-54
2022/09/08 03:28:42;;;;;;;1.83;0.60;;;26.00;50.60;;;;;;5022531;28;20068;-52
2022/09/08 03:31:10;;;;;;;3.30;0.90;;;26.00;50.70;;;;;;5025540;28;20514;-53
2022/09/08 03:33:36;;;;;;;1.70;0.80;;;25.90;50.60;;;;;;5026512;28;20040;-51
2022/09/08 03:36:05;;;;;;;1.95;1.00;;;25.90;50.70;;;;;;5027137;28;20025;-54
2022/09/08 03:38:32;;;;;;;2.13;1.00;;;25.90;50.60;;;;;;5024773;28;20034;-52
2022/09/08 03:40:58;;;;;;;2.13;0.88;;;26.00;50.70;;;;;;5023777;28;20373;-54
2022/09/08 03:43:24;;;;;;;2.60;0.80;;;25.90;50.70;;;;;;5022219;28;20041;-52
2022/09/08 03:45:50;;;;;;;2.70;0.98;;;25.90;50.70;;;;;;5026391;28;20040;-56
2022/09/08 03:48:16;;;;;;;2.53;1.05;;;25.90;50.70;;;;;;5026284;28;20029;-54
2022/09/08 03:50:43;;;;;;;2.05;0.73;;;25.90;50.70;;;;;;5027881;28;20034;-54
2022/09/08 03:53:09;;;;;;;1.85;0.90;;;25.90;50.70;;;;;;5024886;28;20029;-53
2022/09/08 03:55:39;;;;;;;1.38;0.70;;;25.90;50.70;;;;;;5026579;28;20056;-56
2022/09/08 03:58:05;;;;;;;1.80;0.65;;;25.90;50.70;;;;;;5025656;28;20033;-53
2022/09/08 04:00:31;;;;;;;2.05;0.80;;;25.90;50.70;;;;;;5024311;28;20026;-55
2022/09/08 04:02:57;;;;;;;2.50;0.85;;;25.90;50.80;;;;;;5020033;28;20022;-55
2022/09/08 04:05:25;;;;;;;2.47;0.70;;;25.90;50.80;;;;;;5029182;28;20101;-53
2022/09/08 04:07:51;;;;;;;1.92;0.57;;;25.90;50.80;;;;;;5023064;28;20033;-52
2022/09/08 04:10:17;;;;;;;2.45;0.90;;;25.90;50.80;;;;;;5026121;28;20115;-51
2022/09/08 04:12:43;;;;;;;3.28;0.77;;;25.90;50.80;;;;;;5021973;28;20061;-51
2022/09/08 04:15:09;;;;;;;2.10;0.90;;;25.90;50.90;;;;;;5026147;28;20064;-51
2022/09/08 04:17:35;;;;;;;1.67;0.60;;;25.80;50.80;;;;;;5029109;28;20528;-57
2022/09/08 04:20:02;;;;;;;1.88;0.70;;;25.90;50.90;;;;;;5028074;28;20048;-56
2022/09/08 04:22:28;;;;;;;1.38;0.60;;;25.90;51.00;;;;;;5017161;28;20025;-52
2022/09/08 04:24:54;;;;;;;1.83;0.75;;;25.80;50.90;;;;;;5024154;28;20037;-52
2022/09/08 04:27:21;;;;;;;1.38;0.80;;;25.80;50.90;;;;;;5029571;28;20026;-55
2022/09/08 04:29:47;;;;;;;2.17;0.85;;;25.90;51.00;;;;;;5024676;28;20049;-51
2022/09/08 04:32:13;;;;;;;3.17;1.15;;;25.80;51.00;;;;;;5023605;28;20022;-53
2022/09/08 04:34:39;;;;;;;2.05;0.77;;;25.80;51.10;;;;;;5027432;28;20057;-56
2022/09/08 04:37:06;;;;;;;2.08;0.80;;;25.80;51.10;;;;;;5027464;28;20408;-56
2022/09/08 04:39:32;;;;;;;2.28;0.90;;;25.80;51.20;;;;;;5030207;28;20099;-52
2022/09/08 04:41:58;;;;;;;2.05;0.75;;;25.80;51.20;;;;;;5027003;28;20033;-55
2022/09/08 04:44:25;;;;;;;1.70;0.65;;;25.80;51.20;;;;;;5030990;28;20029;-56
2022/09/08 04:46:50;;;;;;;3.00;0.82;;;25.80;51.20;;;;;;5029094;28;20034;-51
2022/09/08 04:49:16;;;;;;;1.23;0.60;;;25.80;51.20;;;;;;5029898;28;20033;-52
2022/09/08 04:51:43;;;;;;;2.58;0.82;;;25.80;51.20;;;;;;5026792;28;20121;-55
2022/09/08 04:54:09;;;;;;;3.10;0.80;;;25.80;51.20;;;;;;5025439;28;20069;-53
2022/09/08 04:56:35;;;;;;;2.17;0.80;;;25.80;51.20;;;;;;5030174;28;20021;-53
2022/09/08 04:59:02;;;;;;;2.15;0.90;;;25.80;51.20;;;;;;5027143;28;20041;-57
2022/09/08 05:01:32;;;;;;;2.22;0.80;;;25.80;51.10;;;;;;5031101;28;20131;-54
2022/09/08 05:04:00;;;;;;;2.10;0.70;;;25.80;51.10;;;;;;5026084;28;20037;-55
2022/09/08 05:06:31;;;;;;;2.47;1.00;;;25.80;51.10;;;;;;5030299;28;20040;-55
2022/09/08 05:08:58;;;;;;;2.22;0.93;;;25.80;51.00;;;;;;5027050;28;20040;-51
2022/09/08 05:11:26;;;;;;;2.10;0.73;;;25.80;51.00;;;;;;5024679;28;20064;-53
2022/09/08 05:13:52;;;;;;;2.70;0.85;;;25.80;51.00;;;;;;5022922;28;20045;-55
2022/09/08 05:16:21;;;;;;;2.08;0.80;;;25.70;50.90;;;;;;5030183;28;20056;-54
2022/09/08 05:18:51;;;;;;;2.90;0.90;;;25.70;50.90;;;;;;5025419;28;20037;-55
2022/09/08 05:21:18;;;;;;;2.33;0.73;;;25.70;50.90;;;;;;5029248;28;20357;-54
2022/09/08 05:23:44;;;;;;;1.48;0.50;;;25.70;50.90;;;;;;5027986;28;20034;-53
2022/09/08 05:26:13;;;;;;;3.78;0.80;;;25.70;50.90;;;;;;5028568;28;20445;-56
2022/09/08 05:28:40;;;;;;;1.20;0.70;;;25.80;51.00;;;;;;5027284;28;20026;-55
2022/09/08 05:31:07;;;;;;;2.28;0.70;;;25.80;51.00;;;;;;5029305;28;20041;-55
2022/09/08 05:33:33;;;;;;;3.63;1.20;;;25.70;51.00;;;;;;5022052;28;20030;-55
2022/09/08 05:36:01;;;;;;;1.52;0.73;;;25.70;51.00;;;;;;5036270;28;20048;-54
2022/09/08 05:38:27;;;;;;;2.00;0.80;;;25.70;51.00;;;;;;5031078;28;20052;-52
2022/09/08 05:40:55;;;;;;;1.73;0.80;;;25.70;51.00;;;;;;5028013;28;20038;-51
2022/09/08 05:43:22;;;;;;;2.47;1.08;;;25.80;51.10;;;;;;5020355;28;20026;-52
2022/09/08 05:45:51;;;;;;;2.15;0.90;;;25.70;51.10;;;;;;5018570;28;20026;-53
2022/09/08 05:48:18;;;;;;;3.78;1.00;;;25.70;51.10;;;;;;5025409;28;20030;-54
2022/09/08 05:50:44;;;;;;;1.88;0.55;;;25.70;51.10;;;;;;5023974;28;20102;-50
2022/09/08 05:53:12;;;;;;;2.30;0.90;;;25.70;51.10;;;;;;5036652;28;20485;-55
2022/09/08 05:55:39;;;;;;;3.08;1.00;;;25.60;51.10;;;;;;5035704;28;20041;-50
2022/09/08 05:58:05;;;;;;;1.88;0.77;;;25.70;51.20;;;;;;5036894;28;20029;-55
2022/09/08 06:00:31;;;;;;;3.67;1.23;;;25.70;51.30;;;;;;5035903;28;20022;-54
2022/09/08 06:03:00;;;;;;;2.25;1.00;;;25.70;51.40;;;;;;5036116;28;20033;-51
2022/09/08 06:05:26;;;;;;;2.75;0.80;;;25.70;52.00;;;;;;5023529;28;20038;-55
2022/09/08 06:07:52;;;;;;;1.27;0.80;;;25.60;52.00;;;;;;5029039;28;20146;-54
2022/09/08 06:10:18;;;;;;;1.85;1.00;;;25.60;51.40;;;;;;5027826;28;20103;-55
2022/09/08 06:12:46;;;;;;;4.07;1.10;;;25.70;51.50;;;;;;5027030;28;20067;-52
2022/09/08 06:15:12;;;;;;;2.88;1.33;;;25.60;51.40;;;;;;5026136;28;20045;-55
2022/09/08 06:17:38;;;;;;;2.15;1.00;;;25.60;51.50;;;;;;5029296;28;20026;-50
2022/09/08 06:20:05;;;;;;;2.42;0.90;;;25.60;51.60;;;;;;5021036;28;20026;-56
2022/09/08 06:22:33;;;;;;;3.53;1.08;;;25.70;51.80;;;;;;5016512;28;20353;-57
2022/09/08 06:25:01;;;;;;;2.50;1.10;;;25.60;51.90;;;;;;5022554;28;20032;-55
2022/09/08 06:27:31;;;;;;;3.33;1.00;;;25.60;52.00;;;;;;5027443;28;20076;-55
2022/09/08 06:30:15;;;;;;;1.48;0.85;;;25.60;52.10;;;;;;5027112;28;20037;-53
2022/09/08 06:32:45;;;;;;;;;;;25.70;52.10;;;;;;5027188;28;20054;-52
2022/09/08 06:35:28;;;;;;;2.10;0.82;;;25.60;52.00;;;;;;5026018;28;19920;-53
2022/09/08 06:37:56;;;;;;;1.77;0.98;;;25.60;52.00;;;;;;5026912;28;20034;-52
2022/09/08 06:40:30;;;;;;;2.08;0.88;;;25.60;52.00;;;;;;5015940;28;20026;-51
2022/09/08 06:43:11;;;;;;;2.65;1.00;;;25.60;52.00;;;;;;5016088;28;20034;-51
2022/09/08 06:45:41;;;;;;;2.53;0.95;;;25.60;52.00;;;;;;5022406;28;20053;-54
2022/09/08 06:48:36;;;;;;;2.00;0.95;;;25.60;52.00;;;;;;5025971;28;20033;-53
2022/09/08 06:51:08;;;;;;;3.13;0.85;;;25.60;52.00;;;;;;5025840;28;20041;-56
2022/09/08 06:53:42;;;;;;;2.25;1.23;;;25.60;52.00;;;;;;5023282;28;20037;-53
2022/09/08 06:56:24;;;;;;;2.20;1.10;;;25.60;52.00;;;;;;5034767;28;20107;-56
2022/09/08 06:58:56;;;;;;;2.83;1.27;;;25.60;52.00;;;;;;5016282;28;20044;-56
2022/09/08 07:01:39;;;;;;;2.97;0.90;;;25.60;52.00;;;;;;5016250;28;20034;-53
2022/09/08 07:04:18;;;;;;;1.83;0.70;;;25.60;52.00;;;;;;5015840;28;20350;-56
2022/09/08 07:07:16;;;;;;;3.30;0.88;;;25.60;52.00;;;;;;5027253;28;20475;-57
2022/09/08 07:10:03;;;;;;;1.85;1.00;;;25.60;52.00;;;;;;5034423;28;20124;-53
2022/09/08 07:13:00;;;;;;;1.90;0.82;;;25.60;52.00;;;;;;5035935;28;20084;-56
2022/09/08 07:15:47;;;;;;;2.50;0.90;;;25.60;52.00;;;;;;5032967;28;20334;-56
2022/09/08 07:18:39;;;;;;;2.97;0.90;;;25.60;52.00;;;;;;5035285;28;20029;-56
2022/09/08 07:21:35;;;;;;;2.30;1.10;;;25.60;52.00;;;;;;5034802;28;20041;-54
2022/09/08 07:24:02;;;;;;;1.90;0.77;;;25.60;52.00;;;;;;5030604;28;20040;-56
2022/09/08 07:26:36;;;;;;;2.03;0.60;;;25.60;52.00;;;;;;5019729;28;20021;-54
2022/09/08 07:29:07;;;;;;;2.42;0.95;;;25.60;51.90;;;;;;5015718;28;20088;-55
2022/09/08 07:31:47;;;;;;;2.20;0.93;;;25.60;51.90;;;;;;5015309;28;20056;-52
2022/09/08 07:34:22;;;;;;;2.17;1.00;;;25.50;51.80;;;;;;5019798;28;20037;-55
2022/09/08 07:36:59;;;;;;;1.60;0.80;;;25.60;51.90;;;;;;5021025;28;20037;-54
2022/09/08 07:39:46;;;;;;;2.72;0.95;;;25.60;51.90;;;;;;5019871;28;20124;-53
2022/09/08 07:42:16;;;;;;;1.40;0.60;;;25.50;51.90;;;;;;5027100;28;20460;-52
2022/09/08 07:44:43;;;;;;;1.65;0.88;;;25.60;51.90;;;;;;5020717;28;20368;-55
2022/09/08 07:47:50;;;;;;;1.08;0.60;;;25.60;51.90;;;;;;5020779;28;20353;-52
2022/09/08 07:50:54;;;;;;;2.35;0.95;;;25.60;51.90;;;;;;5022393;28;20055;-56
2022/09/08 07:53:33;;;;;;;0.70;0.57;;;25.60;51.90;;;;;;5030890;28;20095;-55
2022/09/08 07:56:15;;;;;;;1.25;0.70;;;25.50;51.80;;;;;;5026767;28;20041;-53
2022/09/08 07:58:54;;;;;;;2.20;0.70;;;25.60;51.90;;;;;;5014951;28;20441;-51
2022/09/08 08:01:41;;;;;;;0.98;0.52;;;25.60;51.90;;;;;;5015345;28;20041;-53
2022/09/08 08:04:35;;;;;;;1.67;0.88;;;25.60;51.90;;;;;;5027778;28;20139;-53
2022/09/08 08:07:08;;;;;;;2.17;0.80;;;25.60;51.90;;;;;;5019828;28;20453;-54
2022/09/08 08:09:34;;;;;;;1.70;0.50;;;25.50;51.80;;;;;;5025303;28;20073;-54
2022/09/08 08:12:23;;;;;;;2.40;0.70;;;25.50;51.80;;;;;;5023057;28;20092;-56
2022/09/08 08:15:11;;;;;;;1.23;0.70;;;25.60;51.90;;;;;;5028943;28;20088;-54
2022/09/08 08:17:58;;;;;;;1.60;0.68;;;25.50;51.80;;;;;;5018690;28;20033;-54
2022/09/08 08:20:50;;;;;;;0.77;0.50;;;25.50;51.80;;;;;;5019763;28;20037;-54
2022/09/08 08:23:37;;;;;;;1.33;0.65;;;25.60;51.90;;;;;;5018438;28;20034;-55
2022/09/08 08:26:27;;;;;;;1.30;0.55;;;25.60;51.90;;;;;;5018784;28;20427;-55
2022/09/08 08:29:34;;;;;;;2.08;0.70;;;25.50;51.80;;;;;;5019081;28;20124;-49
2022/09/08 08:32:21;;;;;;;1.42;0.47;;;25.60;51.80;;;;;;5019942;28;20061;-53
2022/09/08 08:34:59;;;;;;;1.67;0.60;;;25.60;51.80;;;;;;5021359;28;20040;-55
2022/09/08 08:37:31;;;;;;;1.88;0.77;;;25.60;51.90;;;;;;5038702;28;20037;-54
2022/09/08 08:39:58;;;;;;;1.20;0.60;;;25.60;51.80;;;;;;5021698;28;20104;-55
2022/09/08 08:42:45;;;;;;;0.95;0.60;;;25.60;51.90;;;;;;5033172;28;20112;-56
2022/09/08 08:45:29;;;;;;;1.52;0.80;;;25.60;51.90;;;;;;5038201;28;20102;-55
2022/09/08 08:48:03;;;;;;;1.63;0.65;;;25.60;51.90;;;;;;5038381;28;20030;-55
2022/09/08 08:50:38;;;;;;;;;;;25.60;51.90;;;;;;5038827;28;20041;-54
2022/09/08 08:53:16;;;;;;;0.95;0.65;;;25.60;51.90;;;;;;5020489;28;19928;-54
2022/09/08 08:56:09;;;;;;;1.13;0.70;;;25.60;51.90;;;;;;5038199;28;20460;-56
2022/09/08 08:58:55;;;;;;;2.22;0.93;;;25.60;51.90;;;;;;5037745;28;20037;-55
2022/09/08 09:01:39;;;;;;;1.35;0.80;;;25.60;51.90;;;;;;5018444;28;20354;-56
2022/09/08 09:04:14;;;;;;;;;;;25.60;51.90;;;;;;5018271;28;20034;-54
2022/09/08 09:06:46;;;;;;;1.27;0.70;;;25.60;51.90;;;;;;5018374;28;20321;-50
2022/09/08 09:09:38;;;;;;;1.35;0.60;;;25.60;52.00;;;;;;5019902;28;20033;-55
2022/09/08 09:12:22;;;;;;;1.40;0.60;;;25.60;51.90;;;;;;5037744;28;20115;-52
2022/09/08 09:15:01;;;;;;;1.27;0.70;;;25.60;51.90;;;;;;5037748;28;20125;-54
2022/09/08 09:17:46;;;;;;;1.13;0.77;;;25.60;51.90;;;;;;5025126;28;20033;-53
2022/09/08 09:20:28;;;;;;;;;;;25.60;51.80;;;;;;5025814;28;20018;-55
2022/09/08 09:23:25;;;;;;;1.85;0.80;;;25.70;51.90;;;;;;5025074;28;19909;-56
2022/09/08 09:26:21;;;;;;;3.65;0.90;;;25.70;51.90;;;;;;5022791;28;20123;-54
2022/09/08 09:29:03;;;;;;;1.85;0.73;;;25.70;51.80;;;;;;5035707;28;20049;-51
2022/09/08 09:31:46;;;;;;;1.42;0.55;;;25.70;51.90;;;;;;5037658;28;20455;-55
2022/09/08 09:34:24;;;;;;;2.22;0.80;;;25.70;51.90;;;;;;5031719;28;20026;-54
2022/09/08 09:37:02;;;;;;;1.52;0.80;;;25.70;51.80;;;;;;5028263;28;20437;-55
2022/09/08 09:39:59;;;;;;;2.10;0.80;;;25.80;51.90;;;;;;5029943;28;20030;-53
2022/09/08 09:42:37;;;;;;;1.73;0.70;;;25.80;51.90;;;;;;5033991;28;20053;-54
2022/09/08 09:45:16;;;;;;;1.73;0.68;;;25.80;51.80;;;;;;5033529;28;20030;-56
2022/09/08 09:47:42;;;;;;;1.77;0.70;;;25.80;51.70;;;;;;5035365;28;20061;-54
2022/09/08 09:50:30;;;;;;;1.92;0.82;;;25.80;52.30;;;;;;5018473;28;20421;-52
2022/09/08 09:53:23;;;;;;;1.42;0.90;;;25.80;51.60;;;;;;5023140;28;20033;-54
2022/09/08 09:56:29;;;;;;;2.30;0.80;;;25.80;51.60;;;;;;5024730;28;20113;-53
2022/09/08 09:59:28;;;;;;;2.10;1.00;;;25.80;51.60;;;;;;4997886;28;20392;-56
2022/09/08 10:02:15;;;;;;;1.23;0.50;;;25.80;51.60;;;;;;5023100;28;20029;-56
2022/09/08 10:05:03;;;;;;;1.88;0.60;;;25.80;51.40;;;;;;5036915;28;20025;-51
2022/09/08 10:07:52;;;;;;;2.03;0.73;;;25.80;51.30;;;;;;5021806;28;20066;-49
2022/09/08 10:10:24;;;;;;;1.52;0.55;;;25.80;51.30;;;;;;5032405;28;20044;-54
2022/09/08 10:13:38;;;;;;;1.33;0.65;;;25.80;51.20;;;;;;5027247;28;20045;-52
2022/09/08 10:16:28;;;;;;;1.05;0.43;;;25.80;51.00;;;;;;5018115;28;20168;-53
2022/09/08 10:19:13;;;;;;;1.30;0.60;;;25.90;51.00;;;;;;5004688;28;20033;-52
2022/09/08 10:22:00;;;;;;;1.13;0.60;;;25.90;51.00;;;;;;5003971;28;20044;-51
2022/09/08 10:24:30;;;;;;;1.95;0.85;;;25.80;50.80;;;;;;5010754;28;21527;-55
2022/09/08 10:27:16;;;;;;;1.92;0.70;;;25.90;51.00;;;;;;5014904;28;20033;-52
2022/09/08 10:29:51;;;;;;;1.23;0.70;;;25.90;51.00;;;;;;5001700;28;20072;-53
2022/09/08 10:32:42;;;;;;;1.00;0.57;;;25.90;51.00;;;;;;5003858;28;20042;-54
2022/09/08 10:35:38;;;;;;;1.52;0.88;;;25.90;51.00;;;;;;5003874;28;20107;-52
2022/09/08 10:38:21;;;;;;;2.30;0.80;;;26.00;51.10;;;;;;5007043;28;20095;-53
2022/09/08 10:40:56;;;;;;;1.70;0.88;;;25.90;51.00;;;;;;5017185;28;20042;-55
2022/09/08 10:43:37;;;;;;;2.30;0.88;;;26.00;51.00;;;;;;5029503;28;20124;-53
2022/09/08 10:46:21;;;;;;;1.02;0.57;;;26.00;50.90;;;;;;5023082;28;20101;-55
2022/09/08 10:48:58;;;;;;;1.38;0.70;;;25.90;50.90;;;;;;5024563;28;20035;-52
2022/09/08 10:51:36;;;;;;;1.23;0.43;;;26.00;50.90;;;;;;5027285;28;20049;-55
2022/09/08 10:54:20;;;;;;;2.55;0.80;;;26.00;50.90;;;;;;5023125;28;20112;-56
2022/09/08 10:56:48;;;;;;;3.42;0.60;;;26.00;50.80;;;;;;5023898;28;20029;-51
2022/09/08 10:59:39;;;;;;;0.95;0.50;;;26.00;50.90;;;;;;5024823;28;20030;-52
2022/09/08 11:02:28;;;;;;;1.58;0.47;;;26.00;51.60;;;;;;5025132;28;20037;-58
2022/09/08 11:05:25;;;;;;;1.02;0.50;;;26.10;51.10;;;;;;5021709;28;20026;-59
2022/09/08 11:08:25;;;;;;;1.60;0.68;;;26.00;51.00;;;;;;5022119;28;20041;-60
2022/09/08 11:11:13;;;;;;;0.80;0.38;;;26.10;51.60;;;;;;5028890;28;20049;-59
2022/09/08 11:13:59;;;;;;;2.28;0.60;;;26.20;50.80;;;;;;5026101;28;20037;-57
2022/09/08 11:16:46;;;;;;;2.05;0.60;;;26.30;50.60;;;;;;5028179;28;20042;-59
2022/09/08 11:19:21;;;;;;;1.27;0.60;;;26.40;50.40;;;;;;5024630;28;20037;-58
2022/09/08 11:22:10;;;;;;;1.55;0.45;;;26.50;50.20;;;;;;5030367;28;20437;-56
2022/09/08 11:24:39;;;;;;;1.85;0.80;;;26.60;50.00;;;;;;5015310;28;20475;-58
2022/09/08 11:27:40;;;;;;;1.05;0.45;;;26.70;49.70;;;;;;5024845;28;20052;-54
2022/09/08 11:30:48;;;;;;;2.85;0.50;;;26.80;49.40;;;;;;5023985;28;20092;-57
2022/09/08 11:33:14;;;;;;;1.23;0.70;;;27.00;49.30;;;;;;5028508;28;20025;-58
2022/09/08 11:35:56;;;;;;;0.75;0.50;;;27.10;49.00;;;;;;5041090;28;20120;-61
2022/09/08 11:38:55;;;;;;;0.80;0.50;;;27.20;48.60;;;;;;5026180;28;20034;-59
2022/09/08 11:41:30;;;;;;;1.77;0.60;;;27.30;48.30;;;;;;5020843;28;20037;-57
2022/09/08 11:44:31;;;;;;;0.80;0.50;;;27.40;48.10;;;;;;5024569;28;20091;-55
2022/09/08 11:47:09;;;;;;;1.98;0.70;;;27.40;47.70;;;;;;5019100;28;20472;-60
2022/09/08 11:49:53;;;;;;;1.50;0.80;;;27.50;47.60;;;;;;5021660;28;20087;-65
2022/09/08 11:52:46;;;;;;;2.63;0.50;;;27.60;47.40;;;;;;5018738;28;20052;-57
2022/09/08 11:55:20;;;;;;;1.05;0.50;;;27.70;47.20;;;;;;5015210;28;20517;-55
2022/09/08 11:58:12;;;;;;;2.58;0.82;;;27.70;47.10;;;;;;5028793;28;20033;-59
2022/09/08 12:01:00;;;;;;;3.08;0.70;;;27.70;47.00;;;;;;5024273;28;20037;-54
2022/09/08 12:03:44;;;;;;;2.05;0.68;;;27.80;46.80;;;;;;5025201;28;20052;-57
2022/09/08 12:06:19;;;;;;;3.22;0.50;;;27.80;46.80;;;;;;5022787;28;20057;-60
2022/09/08 12:09:26;;;;;;;2.22;0.73;;;27.80;46.60;;;;;;5027644;28;20043;-56
2022/09/08 12:12:43;;;;;;;9.25;0.68;;;27.90;46.40;;;;;;5026883;28;20037;-60
2022/09/08 12:15:25;;;;;;;5.25;0.70;;;27.90;46.30;;;;;;4997867;28;20113;-53
2022/09/08 12:18:28;;;;;;;5.70;0.80;;;28.00;46.30;;;;;;5024324;28;20038;-55
2022/09/08 12:21:07;;;;;;;7.57;0.80;;;28.00;46.20;;;;;;5022657;28;20131;-58
2022/09/08 12:23:42;;;;;;;2.03;0.47;;;28.10;46.10;;;;;;5016677;28;20107;-59
2022/09/08 12:26:20;;;;;;;1.02;0.60;;;28.10;46.00;;;;;;5021591;28;20052;-59
2022/09/08 12:29:15;;;;;;;2.70;0.68;;;28.10;46.00;;;;;;5020755;28;20119;-62
2022/09/08 12:32:09;;;;;;;5.18;1.00;;;28.10;45.90;;;;;;5019559;28;20092;-62
2022/09/08 12:35:12;;;;;;;2.92;0.80;;;28.20;45.80;;;;;;5009400;28;20056;-60
2022/09/08 12:37:38;;;;;;;3.53;0.60;;;28.20;45.60;;;;;;5018129;28;20025;-60
2022/09/08 12:40:19;;;;;;;2.17;0.60;;;28.20;45.50;;;;;;5021875;28;20040;-57
2022/09/08 12:43:08;;;;;;;7.38;0.98;;;28.30;45.40;;;;;;5021354;28;20026;-58
2022/09/08 12:45:50;;;;;;;1.92;0.52;;;28.30;45.20;;;;;;5014889;28;20164;-56
2022/09/08 12:48:43;;;;;;;1.10;0.50;;;28.40;45.10;;;;;;5024421;28;20038;-57
2022/09/08 12:51:16;;;;;;;3.35;0.73;;;28.40;44.90;;;;;;5020684;28;20339;-58
2022/09/08 12:54:03;;;;;;;2.40;0.73;;;28.40;44.80;;;;;;5025534;28;20349;-57
2022/09/08 12:56:51;;;;;;;6.28;0.98;;;28.50;44.50;;;;;;5024723;28;20030;-56
2022/09/08 13:00:00;;;;;;;1.85;0.57;;;28.50;44.30;;;;;;5022968;28;20030;-56
2022/09/08 13:03:03;;;;;;;1.55;0.52;;;28.60;44.40;;;;;;4942898;28;20035;-62
2022/09/08 13:05:45;;;;;;;0.93;0.60;;;28.60;44.30;;;;;;5023870;28;20048;-60
2022/09/08 13:08:36;;;;;;;2.03;0.60;;;28.60;44.10;;;;;;5025469;28;20038;-61
2022/09/08 13:11:39;;;;;;;1.40;0.50;;;28.60;43.90;;;;;;5029461;28;20350;-60
2022/09/08 13:14:11;;;;;;;1.65;0.43;;;28.60;43.90;;;;;;5024988;28;20124;-58
2022/09/08 13:17:07;;;;;;;1.02;0.50;;;28.70;43.80;;;;;;5029766;28;20053;-58
2022/09/08 13:19:46;;;;;;;3.50;0.90;;;28.70;43.60;;;;;;5021007;28;20053;-58
2022/09/08 13:22:20;;;;;;;1.85;0.70;;;28.80;43.50;;;;;;5029700;28;20053;-55
2022/09/08 13:25:15;;;;;;;1.67;0.47;;;28.80;43.30;;;;;;5024354;28;20120;-55
2022/09/08 13:27:54;;;;;;;2.78;0.70;;;28.80;43.10;;;;;;5025045;28;20041;-55
2022/09/08 13:30:36;;;;;;;3.70;0.63;;;28.80;42.90;;;;;;5027588;28;20052;-57
2022/09/08 13:33:17;;;;;;;2.10;0.65;;;28.90;42.70;;;;;;5024878;28;20472;-53
2022/09/08 13:36:07;;;;;;;2.42;0.73;;;28.90;42.60;;;;;;5023175;28;20025;-52
2022/09/08 13:38:57;;;;;;;1.35;0.50;;;28.90;42.50;;;;;;5020841;28;20033;-53